sensor_id;sensor_type;location;lat;lon;timestamp;temperature;humidity
53695;DHT22;39588;51.124;7.190;2022-12-10T00:01:18;-1.40;99.00
53695;DHT22;39588;51.124;7.190;2022-12-10T00:03:45;-1.50;99.20
53695;DHT22;39588;51.124;7.190;2022-12-10T00:06:12;-1.50;99.20
53695;DHT22;39588;51.124;7.190;2022-12-10T00:11:07;-1.50;99.30
53695;DHT22;39588;51.124;7.190;2022-12-10T00:13:34;-1.50;99.20
53695;DHT22;39588;51.124;7.190;2022-12-10T00:16:06;-1.50;99.20
53695;DHT22;39588;51.124;7.190;2022-12-10T00:21:02;-1.50;99.40
53695;DHT22;39588;51.124;7.190;2022-12-10T00:23:28;-1.50;99.40
53695;DHT22;39588;51.124;7.190;2022-12-10T00:26:04;-1.50;99.30
53695;DHT22;39588;51.124;7.190;2022-12-10T00:28:30;-1.50;99.30
53695;DHT22;39588;51.124;7.190;2022-12-10T00:31:09;-1.50;99.30
53695;DHT22;39588;51.124;7.190;2022-12-10T00:33:35;-1.50;99.30
53695;DHT22;39588;51.124;7.190;2022-12-10T00:36:07;-1.50;99.20
53695;DHT22;39588;51.124;7.190;2022-12-10T00:38:33;-1.50;99.30
53695;DHT22;39588;51.124;7.190;2022-12-10T00:40:59;-1.60;99.30
53695;DHT22;39588;51.124;7.190;2022-12-10T00:43:25;-1.60;99.30
53695;DHT22;39588;51.124;7.190;2022-12-10T00:45:50;-1.60;99.40
53695;DHT22;39588;51.124;7.190;2022-12-10T00:48:16;-1.60;99.40
53695;DHT22;39588;51.124;7.190;2022-12-10T01:00:25;-1.70;99.40
53695;DHT22;39588;51.124;7.190;2022-12-10T01:02:51;-1.80;99.30
53695;DHT22;39588;51.124;7.190;2022-12-10T01:05:17;-1.80;99.40
53695;DHT22;39588;51.124;7.190;2022-12-10T01:19:52;-2.00;99.30
53695;DHT22;39588;51.124;7.190;2022-12-10T01:22:18;-1.90;99.40
53695;DHT22;39588;51.124;7.190;2022-12-10T01:27:09;-2.00;99.20
53695;DHT22;39588;51.124;7.190;2022-12-10T01:29:35;-1.90;99.20
53695;DHT22;39588;51.124;7.190;2022-12-10T01:32:00;-2.00;99.20
53695;DHT22;39588;51.124;7.190;2022-12-10T01:34:26;-2.00;99.20
53695;DHT22;39588;51.124;7.190;2022-12-10T01:36:53;-2.00;99.20
53695;DHT22;39588;51.124;7.190;2022-12-10T01:39:20;-2.00;99.20
53695;DHT22;39588;51.124;7.190;2022-12-10T01:41:52;-2.00;99.20
53695;DHT22;39588;51.124;7.190;2022-12-10T01:46:49;-2.00;99.30
53695;DHT22;39588;51.124;7.190;2022-12-10T01:49:17;-1.90;99.30
53695;DHT22;39588;51.124;7.190;2022-12-10T01:51:46;1.80;99.90
53695;DHT22;39588;51.124;7.190;2022-12-10T01:54:33;-1.90;99.30
53695;DHT22;39588;51.124;7.190;2022-12-10T01:57:05;-1.90;99.30
53695;DHT22;39588;51.124;7.190;2022-12-10T01:59:32;-1.90;99.20
53695;DHT22;39588;51.124;7.190;2022-12-10T02:07:17;-2.00;99.10
53695;DHT22;39588;51.124;7.190;2022-12-10T02:10:08;-2.10;99.00
53695;DHT22;39588;51.124;7.190;2022-12-10T02:12:47;-2.10;99.10
53695;DHT22;39588;51.124;7.190;2022-12-10T02:15:22;-2.10;99.00
53695;DHT22;39588;51.124;7.190;2022-12-10T02:18:39;-2.10;99.00
53695;DHT22;39588;51.124;7.190;2022-12-10T02:20:51;-2.20;99.00
53695;DHT22;39588;51.124;7.190;2022-12-10T02:23:27;-2.20;99.00
53695;DHT22;39588;51.124;7.190;2022-12-10T02:26:03;-2.20;99.00
53695;DHT22;39588;51.124;7.190;2022-12-10T02:31:06;-2.30;99.00
53695;DHT22;39588;51.124;7.190;2022-12-10T02:33:35;-2.30;99.00
53695;DHT22;39588;51.124;7.190;2022-12-10T02:36:03;-2.30;98.90
53695;DHT22;39588;51.124;7.190;2022-12-10T02:38:32;-2.30;99.00
53695;DHT22;39588;51.124;7.190;2022-12-10T02:41:03;-2.30;99.00
53695;DHT22;39588;51.124;7.190;2022-12-10T02:43:30;-2.30;99.00
53695;DHT22;39588;51.124;7.190;2022-12-10T02:45:58;-2.30;99.00
53695;DHT22;39588;51.124;7.190;2022-12-10T02:48:25;-2.30;99.00
53695;DHT22;39588;51.124;7.190;2022-12-10T02:50:51;-2.30;99.00
53695;DHT22;39588;51.124;7.190;2022-12-10T02:53:17;-2.30;99.10
53695;DHT22;39588;51.124;7.190;2022-12-10T02:55:58;-2.30;99.00
53695;DHT22;39588;51.124;7.190;2022-12-10T02:58:53;-2.30;99.00
53695;DHT22;39588;51.124;7.190;2022-12-10T03:02:15;-2.30;99.10
53695;DHT22;39588;51.124;7.190;2022-12-10T03:08:15;-2.20;99.10
53695;DHT22;39588;51.124;7.190;2022-12-10T03:10:21;-2.20;99.10
53695;DHT22;39588;51.124;7.190;2022-12-10T03:12:57;-2.10;99.10
53695;DHT22;39588;51.124;7.190;2022-12-10T03:15:25;-2.10;99.10
53695;DHT22;39588;51.124;7.190;2022-12-10T03:17:53;-2.00;99.20
53695;DHT22;39588;51.124;7.190;2022-12-10T03:20:22;-2.00;99.10
53695;DHT22;39588;51.124;7.190;2022-12-10T03:25:19;-1.90;99.10
53695;DHT22;39588;51.124;7.190;2022-12-10T03:27:46;-1.90;99.10
53695;DHT22;39588;51.124;7.190;2022-12-10T03:32:42;-1.90;99.00
53695;DHT22;39588;51.124;7.190;2022-12-10T03:35:09;-2.10;99.00
53695;DHT22;39588;51.124;7.190;2022-12-10T03:37:34;-2.10;99.20
53695;DHT22;39588;51.124;7.190;2022-12-10T03:40:01;-2.10;99.20
53695;DHT22;39588;51.124;7.190;2022-12-10T03:42:28;-2.10;99.30
53695;DHT22;39588;51.124;7.190;2022-12-10T03:59:30;-1.40;99.20
53695;DHT22;39588;51.124;7.190;2022-12-10T04:01:55;-1.30;99.20
53695;DHT22;39588;51.124;7.190;2022-12-10T04:04:21;-1.30;99.10
53695;DHT22;39588;51.124;7.190;2022-12-10T04:06:46;-1.20;99.10
53695;DHT22;39588;51.124;7.190;2022-12-10T04:09:14;-1.10;99.10
53695;DHT22;39588;51.124;7.190;2022-12-10T04:11:40;-1.00;99.10
53695;DHT22;39588;51.124;7.190;2022-12-10T04:14:07;-1.00;99.00
53695;DHT22;39588;51.124;7.190;2022-12-10T04:16:51;-0.90;98.90
53695;DHT22;39588;51.124;7.190;2022-12-10T04:19:18;-0.90;98.90
53695;DHT22;39588;51.124;7.190;2022-12-10T04:21:45;-0.90;98.90
53695;DHT22;39588;51.124;7.190;2022-12-10T04:24:31;-0.90;98.90
53695;DHT22;39588;51.124;7.190;2022-12-10T04:27:32;-0.90;98.90
53695;DHT22;39588;51.124;7.190;2022-12-10T04:29:59;-0.90;98.90
53695;DHT22;39588;51.124;7.190;2022-12-10T04:32:27;-0.90;98.90
53695;DHT22;39588;51.124;7.190;2022-12-10T04:37:19;-0.70;99.10
53695;DHT22;39588;51.124;7.190;2022-12-10T04:39:45;-0.70;99.00
53695;DHT22;39588;51.124;7.190;2022-12-10T04:42:12;-0.70;99.00
53695;DHT22;39588;51.124;7.190;2022-12-10T04:44:38;-0.70;99.00
53695;DHT22;39588;51.124;7.190;2022-12-10T04:47:05;-0.60;98.90
53695;DHT22;39588;51.124;7.190;2022-12-10T05:04:11;-0.50;99.00
53695;DHT22;39588;51.124;7.190;2022-12-10T05:09:04;-0.40;99.00
53695;DHT22;39588;51.124;7.190;2022-12-10T05:11:31;-0.40;98.90
53695;DHT22;39588;51.124;7.190;2022-12-10T05:13:58;-0.40;98.80
53695;DHT22;39588;51.124;7.190;2022-12-10T05:16:25;-0.40;98.80
53695;DHT22;39588;51.124;7.190;2022-12-10T05:18:53;-0.40;98.90
53695;DHT22;39588;51.124;7.190;2022-12-10T05:21:20;-0.40;99.00
53695;DHT22;39588;51.124;7.190;2022-12-10T05:23:49;-0.30;99.10
53695;DHT22;39588;51.124;7.190;2022-12-10T05:26:18;-0.30;99.00
53695;DHT22;39588;51.124;7.190;2022-12-10T05:28:53;-0.30;98.90
53695;DHT22;39588;51.124;7.190;2022-12-10T05:31:21;-0.30;98.70
53695;DHT22;39588;51.124;7.190;2022-12-10T05:33:48;-0.30;98.80
53695;DHT22;39588;51.124;7.190;2022-12-10T05:36:16;-0.30;98.80
53695;DHT22;39588;51.124;7.190;2022-12-10T05:38:42;-0.30;98.80
53695;DHT22;39588;51.124;7.190;2022-12-10T05:41:17;-0.30;98.80
53695;DHT22;39588;51.124;7.190;2022-12-10T05:43:43;-0.30;98.80
53695;DHT22;39588;51.124;7.190;2022-12-10T05:46:12;-0.30;98.80
53695;DHT22;39588;51.124;7.190;2022-12-10T05:51:13;-0.30;98.70
53695;DHT22;39588;51.124;7.190;2022-12-10T05:53:39;-0.30;98.70
53695;DHT22;39588;51.124;7.190;2022-12-10T05:56:12;-0.30;98.70
53695;DHT22;39588;51.124;7.190;2022-12-10T05:58:39;-0.30;98.60
53695;DHT22;39588;51.124;7.190;2022-12-10T06:01:11;-0.20;98.60
53695;DHT22;39588;51.124;7.190;2022-12-10T06:03:37;-0.20;98.60
53695;DHT22;39588;51.124;7.190;2022-12-10T06:06:03;-0.20;98.60
53695;DHT22;39588;51.124;7.190;2022-12-10T06:08:29;-0.20;98.40
53695;DHT22;39588;51.124;7.190;2022-12-10T06:10:55;-0.30;98.30
53695;DHT22;39588;51.124;7.190;2022-12-10T06:13:23;-0.20;98.40
53695;DHT22;39588;51.124;7.190;2022-12-10T06:20:40;-0.20;98.50
53695;DHT22;39588;51.124;7.190;2022-12-10T06:23:06;-0.20;98.50
53695;DHT22;39588;51.124;7.190;2022-12-10T06:25:32;-0.20;98.40
53695;DHT22;39588;51.124;7.190;2022-12-10T06:27:58;-0.20;98.40
53695;DHT22;39588;51.124;7.190;2022-12-10T06:30:24;-0.20;98.30
53695;DHT22;39588;51.124;7.190;2022-12-10T06:37:41;-0.10;98.50
53695;DHT22;39588;51.124;7.190;2022-12-10T06:49:51;-0.10;98.30
53695;DHT22;39588;51.124;7.190;2022-12-10T06:52:17;-0.20;98.20
53695;DHT22;39588;51.124;7.190;2022-12-10T06:54:43;-0.10;98.30
53695;DHT22;39588;51.124;7.190;2022-12-10T06:57:08;-0.10;98.30
53695;DHT22;39588;51.124;7.190;2022-12-10T07:06:53;-0.10;98.30
53695;DHT22;39588;51.124;7.190;2022-12-10T07:14:14;-0.20;98.00
53695;DHT22;39588;51.124;7.190;2022-12-10T07:16:41;-0.20;98.00
53695;DHT22;39588;51.124;7.190;2022-12-10T07:19:09;-0.20;98.10
53695;DHT22;39588;51.124;7.190;2022-12-10T07:21:37;-0.30;98.00
53695;DHT22;39588;51.124;7.190;2022-12-10T07:24:08;-0.20;98.10
53695;DHT22;39588;51.124;7.190;2022-12-10T07:26:37;-0.20;98.10
53695;DHT22;39588;51.124;7.190;2022-12-10T07:29:04;-0.10;98.10
53695;DHT22;39588;51.124;7.190;2022-12-10T07:31:30;-0.10;98.00
53695;DHT22;39588;51.124;7.190;2022-12-10T07:33:57;-0.10;98.10
53695;DHT22;39588;51.124;7.190;2022-12-10T07:36:24;-0.10;98.20
53695;DHT22;39588;51.124;7.190;2022-12-10T07:38:51;-0.10;98.10
53695;DHT22;39588;51.124;7.190;2022-12-10T07:43:44;-0.10;98.00
53695;DHT22;39588;51.124;7.190;2022-12-10T07:48:36;-0.10;98.10
53695;DHT22;39588;51.124;7.190;2022-12-10T07:51:03;-0.20;98.00
53695;DHT22;39588;51.124;7.190;2022-12-10T07:58:21;-0.30;98.10
53695;DHT22;39588;51.124;7.190;2022-12-10T08:00:46;-0.20;98.20
53695;DHT22;39588;51.124;7.190;2022-12-10T08:03:12;-0.20;98.20
53695;DHT22;39588;51.124;7.190;2022-12-10T08:05:38;-0.20;98.20
53695;DHT22;39588;51.124;7.190;2022-12-10T08:08:04;-0.20;98.30
53695;DHT22;39588;51.124;7.190;2022-12-10T08:15:22;-0.10;98.10
53695;DHT22;39588;51.124;7.190;2022-12-10T08:17:48;-0.10;98.20
53695;DHT22;39588;51.124;7.190;2022-12-10T08:20:13;0.00;98.20
53695;DHT22;39588;51.124;7.190;2022-12-10T08:25:05;0.00;98.10
53695;DHT22;39588;51.124;7.190;2022-12-10T08:32:23;0.20;98.10
53695;DHT22;39588;51.124;7.190;2022-12-10T08:34:49;0.20;98.00
53695;DHT22;39588;51.124;7.190;2022-12-10T08:39:40;0.20;98.00
53695;DHT22;39588;51.124;7.190;2022-12-10T08:42:06;0.20;97.90
53695;DHT22;39588;51.124;7.190;2022-12-10T08:59:08;-0.10;98.00
53695;DHT22;39588;51.124;7.190;2022-12-10T09:01:33;0.00;98.20
53695;DHT22;39588;51.124;7.190;2022-12-10T09:03:59;0.00;98.20
53695;DHT22;39588;51.124;7.190;2022-12-10T09:06:26;0.20;98.30
53695;DHT22;39588;51.124;7.190;2022-12-10T09:11:27;0.30;98.20
53695;DHT22;39588;51.124;7.190;2022-12-10T09:13:54;0.40;98.20
53695;DHT22;39588;51.124;7.190;2022-12-10T09:18:45;0.30;97.80
53695;DHT22;39588;51.124;7.190;2022-12-10T09:21:14;0.30;98.00
53695;DHT22;39588;51.124;7.190;2022-12-10T09:23:40;0.40;98.10
53695;DHT22;39588;51.124;7.190;2022-12-10T09:26:11;0.50;98.10
53695;DHT22;39588;51.124;7.190;2022-12-10T09:28:37;0.40;97.90
53695;DHT22;39588;51.124;7.190;2022-12-10T09:31:04;0.40;98.00
53695;DHT22;39588;51.124;7.190;2022-12-10T09:33:31;0.50;98.00
53695;DHT22;39588;51.124;7.190;2022-12-10T09:35:57;0.50;98.10
53695;DHT22;39588;51.124;7.190;2022-12-10T09:38:23;0.60;98.20
53695;DHT22;39588;51.124;7.190;2022-12-10T09:41:01;0.70;98.10
53695;DHT22;39588;51.124;7.190;2022-12-10T09:43:47;0.80;98.00
53695;DHT22;39588;51.124;7.190;2022-12-10T09:51:55;1.00;97.90
53695;DHT22;39588;51.124;7.190;2022-12-10T09:57:23;1.10;97.70
53695;DHT22;39588;51.124;7.190;2022-12-10T09:59:52;1.10;97.70
53695;DHT22;39588;51.124;7.190;2022-12-10T10:04:47;1.30;97.80
53695;DHT22;39588;51.124;7.190;2022-12-10T10:07:23;1.30;97.60
53695;DHT22;39588;51.124;7.190;2022-12-10T10:09:51;1.30;97.60
53695;DHT22;39588;51.124;7.190;2022-12-10T10:12:20;1.40;97.40
53695;DHT22;39588;51.124;7.190;2022-12-10T10:14:45;1.40;97.20
53695;DHT22;39588;51.124;7.190;2022-12-10T10:17:20;1.40;97.10
53695;DHT22;39588;51.124;7.190;2022-12-10T10:22:14;1.40;96.90
53695;DHT22;39588;51.124;7.190;2022-12-10T10:24:43;1.40;97.00
53695;DHT22;39588;51.124;7.190;2022-12-10T10:27:23;1.40;97.10
53695;DHT22;39588;51.124;7.190;2022-12-10T10:29:53;1.40;97.30
53695;DHT22;39588;51.124;7.190;2022-12-10T10:32:21;1.40;97.30
53695;DHT22;39588;51.124;7.190;2022-12-10T10:34:53;1.50;97.20
53695;DHT22;39588;51.124;7.190;2022-12-10T10:39:51;1.40;96.80
53695;DHT22;39588;51.124;7.190;2022-12-10T10:42:44;1.40;96.90
53695;DHT22;39588;51.124;7.190;2022-12-10T10:45:38;1.50;96.90
53695;DHT22;39588;51.124;7.190;2022-12-10T10:48:09;1.40;96.90
53695;DHT22;39588;51.124;7.190;2022-12-10T10:51:14;1.40;97.00
53695;DHT22;39588;51.124;7.190;2022-12-10T10:53:49;1.40;97.00
53695;DHT22;39588;51.124;7.190;2022-12-10T10:56:39;1.50;97.10
53695;DHT22;39588;51.124;7.190;2022-12-10T11:01:51;1.40;97.00
53695;DHT22;39588;51.124;7.190;2022-12-10T11:04:29;1.40;96.90
53695;DHT22;39588;51.124;7.190;2022-12-10T11:07:00;1.30;96.40
53695;DHT22;39588;51.124;7.190;2022-12-10T11:09:32;1.20;96.60
53695;DHT22;39588;51.124;7.190;2022-12-10T11:12:05;1.40;96.90
53695;DHT22;39588;51.124;7.190;2022-12-10T11:14:44;1.40;96.90
53695;DHT22;39588;51.124;7.190;2022-12-10T11:19:45;1.50;96.90
53695;DHT22;39588;51.124;7.190;2022-12-10T11:22:29;1.40;96.30
53695;DHT22;39588;51.124;7.190;2022-12-10T11:24:56;1.10;96.10
53695;DHT22;39588;51.124;7.190;2022-12-10T11:30:26;0.70;96.70
53695;DHT22;39588;51.124;7.190;2022-12-10T11:36:28;0.50;97.30
53695;DHT22;39588;51.124;7.190;2022-12-10T11:39:05;0.60;97.30
53695;DHT22;39588;51.124;7.190;2022-12-10T11:42:12;0.60;96.90
53695;DHT22;39588;51.124;7.190;2022-12-10T12:01:35;1.20;96.90
53695;DHT22;39588;51.124;7.190;2022-12-10T12:04:25;1.20;96.80
53695;DHT22;39588;51.124;7.190;2022-12-10T12:07:08;1.20;96.50
53695;DHT22;39588;51.124;7.190;2022-12-10T12:16:09;1.30;96.80
53695;DHT22;39588;51.124;7.190;2022-12-10T12:21:13;1.30;96.80
53695;DHT22;39588;51.124;7.190;2022-12-10T12:23:57;1.30;96.80
53695;DHT22;39588;51.124;7.190;2022-12-10T12:26:35;1.30;96.90
53695;DHT22;39588;51.124;7.190;2022-12-10T12:29:29;1.40;97.00
53695;DHT22;39588;51.124;7.190;2022-12-10T12:32:17;1.40;97.00
53695;DHT22;39588;51.124;7.190;2022-12-10T12:35:03;1.40;97.00
53695;DHT22;39588;51.124;7.190;2022-12-10T12:37:36;1.40;97.10
53695;DHT22;39588;51.124;7.190;2022-12-10T12:40:29;1.40;97.00
53695;DHT22;39588;51.124;7.190;2022-12-10T12:43:01;1.30;96.90
53695;DHT22;39588;51.124;7.190;2022-12-10T12:45:39;1.30;97.10
53695;DHT22;39588;51.124;7.190;2022-12-10T12:48:18;1.30;97.20
53695;DHT22;39588;51.124;7.190;2022-12-10T12:51:12;1.30;97.20
53695;DHT22;39588;51.124;7.190;2022-12-10T12:53:39;1.40;97.20
53695;DHT22;39588;51.124;7.190;2022-12-10T12:58:47;1.50;97.10
53695;DHT22;39588;51.124;7.190;2022-12-10T13:01:52;1.70;97.20
53695;DHT22;39588;51.124;7.190;2022-12-10T13:04:19;1.70;97.00
53695;DHT22;39588;51.124;7.190;2022-12-10T13:07:47;1.70;96.70
53695;DHT22;39588;51.124;7.190;2022-12-10T13:14:03;1.70;96.90
53695;DHT22;39588;51.124;7.190;2022-12-10T13:23:33;1.80;96.80
53695;DHT22;39588;51.124;7.190;2022-12-10T13:26:01;1.70;96.70
53695;DHT22;39588;51.124;7.190;2022-12-10T13:34:14;1.60;96.70
53695;DHT22;39588;51.124;7.190;2022-12-10T13:39:22;1.50;96.80
53695;DHT22;39588;51.124;7.190;2022-12-10T13:47:49;1.50;97.00
53695;DHT22;39588;51.124;7.190;2022-12-10T13:50:36;1.50;97.00
53695;DHT22;39588;51.124;7.190;2022-12-10T13:53:22;1.40;97.10
53695;DHT22;39588;51.124;7.190;2022-12-10T14:06:36;1.40;97.10
53695;DHT22;39588;51.124;7.190;2022-12-10T14:09:12;1.40;97.20
53695;DHT22;39588;51.124;7.190;2022-12-10T14:11:46;1.50;97.20
53695;DHT22;39588;51.124;7.190;2022-12-10T14:14:22;1.40;97.00
53695;DHT22;39588;51.124;7.190;2022-12-10T14:19:16;1.30;96.90
53695;DHT22;39588;51.124;7.190;2022-12-10T14:21:44;1.20;97.10
53695;DHT22;39588;51.124;7.190;2022-12-10T14:24:38;1.20;97.20
53695;DHT22;39588;51.124;7.190;2022-12-10T14:27:27;1.20;97.20
53695;DHT22;39588;51.124;7.190;2022-12-10T14:29:59;1.20;97.30
53695;DHT22;39588;51.124;7.190;2022-12-10T14:32:37;1.10;97.20
53695;DHT22;39588;51.124;7.190;2022-12-10T14:35:06;1.00;97.30
53695;DHT22;39588;51.124;7.190;2022-12-10T14:37:37;1.00;97.40
53695;DHT22;39588;51.124;7.190;2022-12-10T14:40:06;1.00;97.50
53695;DHT22;39588;51.124;7.190;2022-12-10T14:42:33;1.00;97.50
53695;DHT22;39588;51.124;7.190;2022-12-10T14:45:01;1.10;97.50
53695;DHT22;39588;51.124;7.190;2022-12-10T14:47:33;1.10;97.50
53695;DHT22;39588;51.124;7.190;2022-12-10T14:50:01;1.00;97.50
53695;DHT22;39588;51.124;7.190;2022-12-10T14:52:39;1.00;97.60
53695;DHT22;39588;51.124;7.190;2022-12-10T14:55:05;1.00;97.60
53695;DHT22;39588;51.124;7.190;2022-12-10T14:57:35;1.00;97.70
53695;DHT22;39588;51.124;7.190;2022-12-10T15:02:31;1.00;97.60
53695;DHT22;39588;51.124;7.190;2022-12-10T15:04:59;1.00;97.70
53695;DHT22;39588;51.124;7.190;2022-12-10T15:07:30;1.00;97.70
53695;DHT22;39588;51.124;7.190;2022-12-10T15:10:01;1.00;97.70
53695;DHT22;39588;51.124;7.190;2022-12-10T15:12:35;1.00;97.60
53695;DHT22;39588;51.124;7.190;2022-12-10T15:15:10;0.90;97.60
53695;DHT22;39588;51.124;7.190;2022-12-10T15:17:41;0.90;97.70
53695;DHT22;39588;51.124;7.190;2022-12-10T15:20:24;0.90;97.70
53695;DHT22;39588;51.124;7.190;2022-12-10T15:22:51;0.90;97.80
53695;DHT22;39588;51.124;7.190;2022-12-10T15:25:28;0.90;97.90
53695;DHT22;39588;51.124;7.190;2022-12-10T15:27:56;1.00;97.90
53695;DHT22;39588;51.124;7.190;2022-12-10T15:30:37;0.90;97.60
53695;DHT22;39588;51.124;7.190;2022-12-10T15:33:16;0.90;97.70
53695;DHT22;39588;51.124;7.190;2022-12-10T15:35:47;0.80;97.70
53695;DHT22;39588;51.124;7.190;2022-12-10T15:38:13;0.80;97.70
53695;DHT22;39588;51.124;7.190;2022-12-10T15:40:38;0.70;97.70
53695;DHT22;39588;51.124;7.190;2022-12-10T15:43:27;0.70;97.90
53695;DHT22;39588;51.124;7.190;2022-12-10T15:45:55;0.80;97.90
53695;DHT22;39588;51.124;7.190;2022-12-10T15:48:21;0.80;97.80
53695;DHT22;39588;51.124;7.190;2022-12-10T15:50:49;0.80;97.90
53695;DHT22;39588;51.124;7.190;2022-12-10T15:53:26;0.80;97.90
53695;DHT22;39588;51.124;7.190;2022-12-10T16:00:44;0.90;97.80
53695;DHT22;39588;51.124;7.190;2022-12-10T16:03:14;0.90;97.70
53695;DHT22;39588;51.124;7.190;2022-12-10T16:08:17;0.90;97.80
53695;DHT22;39588;51.124;7.190;2022-12-10T16:10:44;0.90;97.90
53695;DHT22;39588;51.124;7.190;2022-12-10T16:13:19;0.90;97.70
53695;DHT22;39588;51.124;7.190;2022-12-10T16:15:52;0.90;97.80
53695;DHT22;39588;51.124;7.190;2022-12-10T16:28:18;1.10;97.80
53695;DHT22;39588;51.124;7.190;2022-12-10T16:30:49;1.10;97.70
53695;DHT22;39588;51.124;7.190;2022-12-10T16:33:16;1.10;97.80
53695;DHT22;39588;51.124;7.190;2022-12-10T16:35:44;1.10;97.80
53695;DHT22;39588;51.124;7.190;2022-12-10T16:40:37;1.10;97.60
53695;DHT22;39588;51.124;7.190;2022-12-10T16:45:34;1.00;97.70
53695;DHT22;39588;51.124;7.190;2022-12-10T16:48:00;0.90;97.70
53695;DHT22;39588;51.124;7.190;2022-12-10T16:50:26;0.90;97.80
53695;DHT22;39588;51.124;7.190;2022-12-10T16:52:52;0.90;97.80
53695;DHT22;39588;51.124;7.190;2022-12-10T16:55:25;0.90;97.90
53695;DHT22;39588;51.124;7.190;2022-12-10T16:57:51;0.90;97.90
53695;DHT22;39588;51.124;7.190;2022-12-10T17:00:21;0.90;98.00
53695;DHT22;39588;51.124;7.190;2022-12-10T17:02:48;0.90;98.00
53695;DHT22;39588;51.124;7.190;2022-12-10T17:05:29;0.90;98.00
53695;DHT22;39588;51.124;7.190;2022-12-10T17:07:56;0.90;98.00
53695;DHT22;39588;51.124;7.190;2022-12-10T17:13:10;1.00;97.90
53695;DHT22;39588;51.124;7.190;2022-12-10T17:15:37;0.90;97.90
53695;DHT22;39588;51.124;7.190;2022-12-10T17:22:55;0.80;98.00
53695;DHT22;39588;51.124;7.190;2022-12-10T17:25:21;0.80;98.00
53695;DHT22;39588;51.124;7.190;2022-12-10T17:27:46;0.80;98.00
53695;DHT22;39588;51.124;7.190;2022-12-10T17:30:14;0.80;98.00
53695;DHT22;39588;51.124;7.190;2022-12-10T17:32:40;0.90;98.10
53695;DHT22;39588;51.124;7.190;2022-12-10T17:37:35;0.00;97.60
53695;DHT22;39588;51.124;7.190;2022-12-10T17:40:12;0.90;97.90
53695;DHT22;39588;51.124;7.190;2022-12-10T17:45:04;0.80;97.90
53695;DHT22;39588;51.124;7.190;2022-12-10T17:47:31;0.90;98.00
53695;DHT22;39588;51.124;7.190;2022-12-10T17:52:24;0.80;98.00
53695;DHT22;39588;51.124;7.190;2022-12-10T17:54:49;0.80;98.00
53695;DHT22;39588;51.124;7.190;2022-12-10T17:57:20;0.80;98.10
53695;DHT22;39588;51.124;7.190;2022-12-10T18:04:39;0.90;98.00
53695;DHT22;39588;51.124;7.190;2022-12-10T18:07:12;0.90;97.90
53695;DHT22;39588;51.124;7.190;2022-12-10T18:09:39;0.90;97.90
53695;DHT22;39588;51.124;7.190;2022-12-10T18:12:06;0.80;97.90
53695;DHT22;39588;51.124;7.190;2022-12-10T18:14:32;0.70;97.90
53695;DHT22;39588;51.124;7.190;2022-12-10T18:16:58;0.80;98.10
53695;DHT22;39588;51.124;7.190;2022-12-10T18:19:23;0.80;98.10
53695;DHT22;39588;51.124;7.190;2022-12-10T18:26:42;0.80;98.00
53695;DHT22;39588;51.124;7.190;2022-12-10T18:29:10;0.90;98.10
53695;DHT22;39588;51.124;7.190;2022-12-10T18:31:40;0.90;98.00
53695;DHT22;39588;51.124;7.190;2022-12-10T18:34:08;0.80;98.00
53695;DHT22;39588;51.124;7.190;2022-12-10T18:36:40;0.80;98.00
53695;DHT22;39588;51.124;7.190;2022-12-10T18:39:20;0.80;98.00
53695;DHT22;39588;51.124;7.190;2022-12-10T18:41:46;0.80;98.00
53695;DHT22;39588;51.124;7.190;2022-12-10T18:44:13;0.80;98.10
53695;DHT22;39588;51.124;7.190;2022-12-10T18:46:42;0.80;98.00
53695;DHT22;39588;51.124;7.190;2022-12-10T18:49:13;0.80;98.00
53695;DHT22;39588;51.124;7.190;2022-12-10T18:51:39;0.80;98.00
53695;DHT22;39588;51.124;7.190;2022-12-10T18:54:05;0.80;98.10
53695;DHT22;39588;51.124;7.190;2022-12-10T18:58:58;0.80;98.00
53695;DHT22;39588;51.124;7.190;2022-12-10T19:01:31;0.90;98.00
53695;DHT22;39588;51.124;7.190;2022-12-10T19:03:57;0.90;98.00
53695;DHT22;39588;51.124;7.190;2022-12-10T19:06:25;0.90;98.10
53695;DHT22;39588;51.124;7.190;2022-12-10T19:08:52;0.90;98.10
53695;DHT22;39588;51.124;7.190;2022-12-10T19:11:19;0.90;98.00
53695;DHT22;39588;51.124;7.190;2022-12-10T19:13:46;0.90;98.10
53695;DHT22;39588;51.124;7.190;2022-12-10T19:16:14;0.90;98.00
53695;DHT22;39588;51.124;7.190;2022-12-10T19:18:40;0.90;97.90
53695;DHT22;39588;51.124;7.190;2022-12-10T19:21:05;0.90;98.10
53695;DHT22;39588;51.124;7.190;2022-12-10T19:23:36;0.90;98.10
53695;DHT22;39588;51.124;7.190;2022-12-10T19:28:28;1.00;98.10
53695;DHT22;39588;51.124;7.190;2022-12-10T19:30:54;1.00;98.00
53695;DHT22;39588;51.124;7.190;2022-12-10T19:38:12;1.00;97.90
53695;DHT22;39588;51.124;7.190;2022-12-10T19:40:39;1.00;97.90
53695;DHT22;39588;51.124;7.190;2022-12-10T19:45:32;1.00;97.90
53695;DHT22;39588;51.124;7.190;2022-12-10T19:47:59;1.00;98.00
53695;DHT22;39588;51.124;7.190;2022-12-10T19:50:31;1.00;98.00
53695;DHT22;39588;51.124;7.190;2022-12-10T19:52:57;1.00;98.00
53695;DHT22;39588;51.124;7.190;2022-12-10T20:00:23;1.00;98.00
53695;DHT22;39588;51.124;7.190;2022-12-10T20:02:49;1.00;97.80
53695;DHT22;39588;51.124;7.190;2022-12-10T20:05:15;1.00;97.90
53695;DHT22;39588;51.124;7.190;2022-12-10T20:07:41;1.00;98.00
53695;DHT22;39588;51.124;7.190;2022-12-10T20:10:16;1.00;97.90
53695;DHT22;39588;51.124;7.190;2022-12-10T20:12:42;1.00;97.90
53695;DHT22;39588;51.124;7.190;2022-12-10T20:15:08;1.00;98.00
53695;DHT22;39588;51.124;7.190;2022-12-10T20:17:34;1.00;97.90
53695;DHT22;39588;51.124;7.190;2022-12-10T20:19:59;1.00;97.90
53695;DHT22;39588;51.124;7.190;2022-12-10T20:22:25;1.00;97.90
53695;DHT22;39588;51.124;7.190;2022-12-10T20:24:51;1.00;97.90
53695;DHT22;39588;51.124;7.190;2022-12-10T20:27:16;1.00;98.00
53695;DHT22;39588;51.124;7.190;2022-12-10T20:29:42;1.10;98.10
53695;DHT22;39588;51.124;7.190;2022-12-10T20:32:08;1.10;98.10
53695;DHT22;39588;51.124;7.190;2022-12-10T20:34:34;1.10;98.00
53695;DHT22;39588;51.124;7.190;2022-12-10T20:37:01;1.10;98.10
53695;DHT22;39588;51.124;7.190;2022-12-10T20:39:29;1.10;98.10
53695;DHT22;39588;51.124;7.190;2022-12-10T20:41:56;1.10;98.00
53695;DHT22;39588;51.124;7.190;2022-12-10T20:44:23;1.10;98.00
53695;DHT22;39588;51.124;7.190;2022-12-10T20:46:49;1.10;98.00
53695;DHT22;39588;51.124;7.190;2022-12-10T20:49:19;1.20;98.10
53695;DHT22;39588;51.124;7.190;2022-12-10T20:51:45;1.10;98.00
53695;DHT22;39588;51.124;7.190;2022-12-10T20:54:13;1.20;98.00
53695;DHT22;39588;51.124;7.190;2022-12-10T20:56:39;1.20;98.00
53695;DHT22;39588;51.124;7.190;2022-12-10T20:59:05;1.20;98.00
53695;DHT22;39588;51.124;7.190;2022-12-10T21:01:31;1.10;97.90
53695;DHT22;39588;51.124;7.190;2022-12-10T21:03:57;1.10;98.00
53695;DHT22;39588;51.124;7.190;2022-12-10T21:06:26;1.20;98.00
53695;DHT22;39588;51.124;7.190;2022-12-10T21:08:53;1.20;98.00
53695;DHT22;39588;51.124;7.190;2022-12-10T21:11:19;1.20;98.00
53695;DHT22;39588;51.124;7.190;2022-12-10T21:14:00;1.20;98.00
53695;DHT22;39588;51.124;7.190;2022-12-10T21:16:26;1.10;97.90
53695;DHT22;39588;51.124;7.190;2022-12-10T21:18:53;1.10;97.90
53695;DHT22;39588;51.124;7.190;2022-12-10T21:21:20;1.10;98.00